createdAt,value
2022-10-05T00:01:35.700Z,100351.28
2022-10-05T00:06:37.377Z,100357.75
2022-10-05T00:11:39.027Z,100342.53
2022-10-05T00:16:40.685Z,100348.94
2022-10-05T00:21:42.396Z,100350.72
2022-10-05T00:26:44.363Z,100339.38
2022-10-05T00:31:46.427Z,100344.97
2022-10-05T00:36:48.474Z,100339.59
2022-10-05T00:42:11.181Z,100339.84
2022-10-05T00:47:15.689Z,100354.06
2022-10-05T00:52:50.163Z,100353.41
2022-10-05T00:58:28.761Z,100358.91
2022-10-05T01:03:46.512Z,100349.13
2022-10-05T01:08:51.198Z,100353.41
2022-10-05T01:14:04.913Z,100339.91
2022-10-05T01:19:20.202Z,100333.34
2022-10-05T01:24:30.973Z,100326.38
2022-10-05T01:29:41.462Z,100311.38
2022-10-05T01:35:07.995Z,100298.03
2022-10-05T01:40:48.101Z,100285.94
2022-10-05T01:45:58.585Z,100280.44
2022-10-05T01:51:18.956Z,100277.88
2022-10-05T01:56:29.541Z,100267.81
2022-10-05T02:01:55.588Z,100251.41
2022-10-05T02:06:58.774Z,100245.22
2022-10-05T02:12:08.160Z,100265.50
2022-10-05T02:17:35.332Z,100258.75
2022-10-05T02:22:46.496Z,100278.03
2022-10-05T02:27:55.541Z,100270.72
2022-10-05T02:33:29.875Z,100274.03
2022-10-05T02:39:05.465Z,100288.38
2022-10-05T02:44:16.787Z,100280.28
2022-10-05T02:49:49.291Z,100296.41
2022-10-05T02:55:20.828Z,100298.53
2022-10-05T03:00:25.609Z,100295.25
2022-10-05T03:05:54.057Z,100290.78
2022-10-05T03:11:04.902Z,100289.28
2022-10-05T03:16:24.800Z,100306.19
2022-10-05T03:21:45.132Z,100291.69
2022-10-05T03:26:58.946Z,100285.75
2022-10-05T03:32:09.679Z,100281.78
2022-10-05T03:37:21.352Z,100270.81
2022-10-05T03:42:41.589Z,100280.31
2022-10-05T03:48:16.647Z,100288.78
2022-10-05T03:53:22.100Z,100294.50
2022-10-05T03:58:41.227Z,100294.50
2022-10-05T04:03:57.255Z,100293.72
2022-10-05T04:09:31.811Z,100288.97
2022-10-05T04:14:46.748Z,100293.84
2022-10-05T04:19:59.128Z,100293.47
2022-10-05T04:25:14.753Z,100281.03
2022-10-05T04:30:20.453Z,100276.31
2022-10-05T04:35:30.861Z,100274.38
2022-10-05T04:40:50.201Z,100273.59
2022-10-05T04:46:10.127Z,100288.84
2022-10-05T04:51:29.796Z,100291.72
2022-10-05T04:56:39.028Z,100275.00
2022-10-05T05:02:16.274Z,100279.00
2022-10-05T05:07:36.643Z,100292.28
2022-10-05T05:13:16.630Z,100293.34
2022-10-05T05:18:39.801Z,100293.53
2022-10-05T05:23:49.937Z,100285.13
2022-10-05T05:29:05.864Z,100288.53
2022-10-05T05:34:29.110Z,100292.88
2022-10-05T05:39:52.601Z,100284.75
2022-10-05T05:44:58.002Z,100293.66
2022-10-05T05:50:32.414Z,100294.44
2022-10-05T05:55:45.007Z,100290.00
2022-10-05T06:00:52.634Z,100271.28
2022-10-05T06:06:01.807Z,100274.50
2022-10-05T06:11:11.261Z,100276.50
2022-10-05T06:16:12.929Z,100285.13
2022-10-05T06:21:25.339Z,100288.19
2022-10-05T06:26:49.069Z,100285.78
2022-10-05T06:32:06.148Z,100286.75
2022-10-05T06:37:17.941Z,100286.97
2022-10-05T06:42:19.625Z,100288.59
2022-10-05T06:47:35.034Z,100284.97
2022-10-05T06:52:58.251Z,100282.50
2022-10-05T06:58:37.665Z,100283.69
2022-10-05T07:04:07.463Z,100281.53
2022-10-05T07:09:14.966Z,100278.47
2022-10-05T07:14:52.118Z,100265.88
2022-10-05T07:20:15.261Z,100278.28
2022-10-05T07:25:38.559Z,100271.47
2022-10-05T07:31:09.760Z,100272.78
2022-10-05T07:37:08.665Z,100266.94
2022-10-05T07:42:19.321Z,100267.72
2022-10-05T07:47:50.040Z,100266.22
2022-10-05T07:53:21.999Z,100255.69
2022-10-05T07:59:06.192Z,100254.47
2022-10-05T08:04:35.203Z,100260.84
2022-10-05T08:10:31.995Z,100259.56
2022-10-05T08:16:18.630Z,100245.25
2022-10-05T08:22:18.919Z,100250.09
2022-10-05T08:27:26.625Z,100251.84
2022-10-05T08:32:34.967Z,100241.22
2022-10-05T08:37:41.580Z,100248.50
2022-10-05T08:43:08.942Z,100257.47
2022-10-05T08:48:38.585Z,100248.25
2022-10-05T08:54:07.692Z,100254.06
2022-10-05T08:59:15.433Z,100248.06
2022-10-05T09:04:39.982Z,100251.72
2022-10-05T09:10:11.726Z,100234.94
2022-10-05T09:15:32.124Z,100232.53
2022-10-05T09:20:50.986Z,100236.59
2022-10-05T09:26:27.667Z,100233.66
2022-10-05T09:31:47.455Z,100229.44
2022-10-05T09:36:55.439Z,100217.28
2022-10-05T09:42:44.685Z,100211.78
2022-10-05T09:48:05.078Z,100202.53
2022-10-05T09:53:40.934Z,100196.34
2022-10-05T09:59:08.628Z,100196.25
2022-10-05T10:04:26.867Z,100186.81
2022-10-05T10:09:52.740Z,100186.41
2022-10-05T10:15:28.446Z,100179.22
2022-10-05T10:21:05.579Z,100178.16
2022-10-05T10:26:19.029Z,100172.44
2022-10-05T10:31:35.842Z,100165.94
2022-10-05T10:37:13.961Z,100169.56
2022-10-05T10:42:34.411Z,100162.72
2022-10-05T10:47:36.094Z,100160.16
2022-10-05T10:52:56.246Z,100154.16
2022-10-05T10:58:35.029Z,100157.41
2022-10-05T11:04:13.829Z,100154.19
2022-10-05T11:09:25.821Z,100148.25
2022-10-05T11:14:45.643Z,100133.91
2022-10-05T11:20:04.158Z,100129.09
2022-10-05T11:25:37.922Z,100127.41
2022-10-05T11:31:02.503Z,100129.78
2022-10-05T11:36:25.859Z,100116.53
2022-10-05T11:41:45.725Z,100119.09
2022-10-05T11:47:04.714Z,100107.31
2022-10-05T11:52:13.107Z,100105.94
2022-10-05T11:57:20.042Z,100105.13
2022-10-05T12:02:55.473Z,100092.72
2022-10-05T12:08:09.071Z,100085.47
2022-10-05T12:13:53.498Z,100079.53
2022-10-05T12:19:17.691Z,100069.53
2022-10-05T12:24:26.836Z,100076.59
2022-10-05T12:29:53.669Z,100072.38
2022-10-05T12:35:11.674Z,100059.69
2022-10-05T12:40:23.680Z,100058.69
2022-10-05T12:45:43.418Z,100036.78
2022-10-05T12:50:56.827Z,100035.91
2022-10-05T12:56:09.420Z,100039.06
2022-10-05T13:01:43.144Z,100037.91
2022-10-05T13:07:22.916Z,100029.81
2022-10-05T13:12:36.049Z,100023.00
2022-10-05T13:17:50.063Z,100014.59
2022-10-05T13:23:14.895Z,100019.38
2022-10-05T13:28:23.225Z,100007.03
2022-10-05T13:33:33.391Z,99994.53
2022-10-05T13:39:13.425Z,99989.81
2022-10-05T13:44:35.262Z,99984.41
2022-10-05T13:50:02.314Z,99995.28
2022-10-05T13:55:19.235Z,99986.31
2022-10-05T14:00:26.257Z,99991.19
2022-10-05T14:05:30.772Z,99975.38
2022-10-05T14:10:39.023Z,99975.44
2022-10-05T14:15:42.424Z,99955.88
2022-10-05T14:21:01.729Z,99957.03
2022-10-05T14:26:04.419Z,99957.03
2022-10-05T14:31:14.976Z,99951.78
2022-10-05T14:36:35.081Z,99944.88
2022-10-05T14:41:37.613Z,99945.97
2022-10-05T14:46:52.102Z,99950.50
2022-10-05T14:51:55.850Z,99943.38
2022-10-05T14:57:06.817Z,99945.66
2022-10-05T15:02:45.313Z,99955.50
2022-10-05T15:07:51.374Z,99945.00
2022-10-05T15:12:55.668Z,99946.19
2022-10-05T15:18:15.469Z,99939.50
2022-10-05T15:23:35.329Z,99935.09
2022-10-05T15:28:41.694Z,99939.28
2022-10-05T15:34:12.433Z,99933.63
2022-10-05T15:39:20.001Z,99934.75
2022-10-05T15:44:52.342Z,99934.72
2022-10-05T15:50:21.203Z,99946.13
2022-10-05T15:55:35.386Z,99939.13
2022-10-05T16:00:48.004Z,99936.63
2022-10-05T16:06:37.613Z,99951.72
2022-10-05T16:12:01.538Z,99946.88
2022-10-05T16:17:05.765Z,99958.56
2022-10-05T16:22:33.540Z,99959.97
2022-10-05T16:27:35.147Z,99966.84
2022-10-05T16:32:43.204Z,99975.47
2022-10-05T16:37:57.764Z,99984.63
2022-10-05T16:43:21.092Z,99994.78
2022-10-05T16:48:26.254Z,100006.00
2022-10-05T16:53:37.816Z,100005.97
2022-10-05T16:58:45.238Z,100017.56
2022-10-05T17:04:16.564Z,100032.59
2022-10-05T17:09:53.499Z,100030.28
2022-10-05T17:15:10.114Z,100040.34
2022-10-05T17:20:50.979Z,100060.94
2022-10-05T17:26:32.794Z,100065.69
2022-10-05T17:32:09.914Z,100074.22
2022-10-05T17:37:32.057Z,100078.22
2022-10-05T17:42:34.285Z,100091.47
2022-10-05T17:47:54.470Z,100100.94
2022-10-05T17:53:53.554Z,100104.66
2022-10-05T17:58:58.902Z,100107.78
2022-10-05T18:04:12.422Z,100118.09
2022-10-05T18:09:14.009Z,100113.88
2022-10-05T18:14:19.704Z,100116.53
2022-10-05T18:19:22.784Z,100121.06
2022-10-05T18:24:38.934Z,100123.78
2022-10-05T18:30:13.881Z,100124.38
2022-10-05T18:35:33.434Z,100136.09
2022-10-05T18:40:41.122Z,100139.59
2022-10-05T18:46:23.272Z,100149.88
2022-10-05T18:51:35.863Z,100159.22
2022-10-05T18:56:51.854Z,100165.91
2022-10-05T19:02:11.045Z,100168.16
2022-10-05T19:07:48.216Z,100178.53
2022-10-05T19:13:14.857Z,100178.31
2022-10-05T19:18:39.868Z,100189.69
2022-10-05T19:24:11.070Z,100199.63
2022-10-05T19:29:12.522Z,100212.31
2022-10-05T19:34:19.985Z,100219.47
2022-10-05T19:39:50.641Z,100220.97
2022-10-05T19:45:38.963Z,100239.13
2022-10-05T19:50:53.668Z,100238.81
2022-10-05T19:55:55.762Z,100249.06
2022-10-05T20:01:01.159Z,100272.97
2022-10-05T20:06:07.513Z,100279.22
2022-10-05T20:11:11.968Z,100278.28
2022-10-05T20:16:35.360Z,100283.44
2022-10-05T20:21:38.124Z,100282.59
2022-10-05T20:27:06.681Z,100280.38
2022-10-05T20:32:14.237Z,100279.34
2022-10-05T20:37:18.189Z,100294.38
2022-10-05T20:42:20.993Z,100303.22
2022-10-05T20:47:23.178Z,100300.06
2022-10-05T20:52:24.768Z,100308.59
2022-10-05T20:57:26.703Z,100306.34
2022-10-05T21:02:28.757Z,100325.16
2022-10-05T21:07:30.389Z,100329.06
2022-10-05T21:12:34.000Z,100332.25
2022-10-05T21:17:38.124Z,100336.97
2022-10-05T21:22:39.711Z,100340.75
2022-10-05T21:27:41.354Z,100344.25
2022-10-05T21:32:44.683Z,100356.78
2022-10-05T21:37:46.595Z,100358.34
2022-10-05T21:42:48.162Z,100347.53
2022-10-05T21:47:50.053Z,100357.75
2022-10-05T21:52:51.996Z,100370.03
2022-10-05T21:57:56.825Z,100370.03
2022-10-05T22:02:58.441Z,100364.22
2022-10-05T22:08:00.302Z,100387.25
2022-10-05T22:13:04.678Z,100394.69
2022-10-05T22:18:06.370Z,100397.50
2022-10-05T22:23:07.957Z,100392.88
2022-10-05T22:28:13.553Z,100402.56
2022-10-05T22:33:15.219Z,100406.66
2022-10-05T22:38:16.824Z,100415.69
2022-10-05T22:43:18.453Z,100421.41
2022-10-05T22:48:20.077Z,100416.19
2022-10-05T22:53:21.659Z,100411.91
2022-10-05T22:58:23.377Z,100402.94
2022-10-05T23:03:25.153Z,100416.84
2022-10-05T23:08:27.252Z,100413.63
2022-10-05T23:13:29.631Z,100398.13
2022-10-05T23:18:31.897Z,100406.91
2022-10-05T23:23:36.265Z,100413.97
2022-10-05T23:28:40.281Z,100414.44
2022-10-05T23:33:42.085Z,100424.28
2022-10-05T23:38:44.476Z,100433.31
2022-10-05T23:43:46.693Z,100450.94
2022-10-05T23:48:50.361Z,100445.06
2022-10-05T23:53:52.013Z,100441.56
2022-10-05T23:58:53.636Z,100449.78
